Last reported at 2013-Jan-04 01:33 UTC.
Time now 2014-Apr-18 03:05 UTC

Location: N 49°34' W 057°53'.
View on Google Maps.

See reports from other nearby stations

Tides Stations Pressure Air Temp Water Temp Dewpoint Dewpoint depression Visibility Wind Speed Wind Dir Waves Ship positions

  
sailing weather and tide predictions

ROCKY HARBOUR CS/NF, weather

date/time (UTC)wind fromknots sea level pressurealtimeterstation pressurevisibilityair tempwater tempwave heightnotes
2014-Apr-18 01:00 260 5 -5.0
2014-Apr-18 00:00 260 4 -4.0
2014-Apr-17 23:00 270 5 -4.0
2014-Apr-17 22:00 260 7 -2.0
2014-Apr-17 21:00 260 8 -1.0
2014-Apr-17 20:00 260 11 gusting 17 -1.0
2014-Apr-17 19:00 260 12 -1.0
2014-Apr-17 18:00 260 14 gusting 19 -0.0
2014-Apr-17 15:00 270 7 -1.0
2014-Apr-17 14:00 280 8 gusting 16 -2.0
2014-Apr-17 13:00 290 8 gusting 15 -4.0
2014-Apr-17 12:00 290 7 gusting 17 -4.0
2014-Apr-17 11:00 290 6 -4.0
2014-Apr-17 10:00 330 4 -5.0
2014-Apr-17 09:00 330 4 -4.0
2014-Apr-17 08:00 260 10 gusting 15 -3.0
2014-Apr-17 07:00 270 9 gusting 18 -3.0
2014-Apr-17 06:00 260 9 gusting 17 -3.0
2014-Apr-17 05:00 260 10 gusting 16 -3.0
2014-Apr-17 04:00 260 11 gusting 17 -3.0
2014-Apr-17 03:00 270 8 gusting 15 -3.0
2014-Apr-17 02:00 260 12 gusting 18 -2.0
2014-Apr-17 01:00 250 11 gusting 17 -2.0
2014-Apr-17 00:00 250 18 gusting 27 -2.0
2014-Apr-16 23:00 260 11 gusting 18 -2.0
2014-Apr-16 22:00 270 9 gusting 16 -1.0
2014-Apr-16 21:00 290 5 -0.0
2014-Apr-16 20:00 310 3 1.0
2014-Apr-16 19:00 240 19 gusting 40 7.0
2014-Apr-16 18:00 200 11 gusting 24 12.0
2014-Apr-16 17:00 160 9 gusting 19 14.0
2014-Apr-16 16:00 160 14 gusting 24 15.0
2014-Apr-16 15:00 180 11 gusting 23 16.0
2014-Apr-16 14:00 170 11 gusting 25 14.0
2014-Apr-16 13:00 150 10 gusting 20 13.0
2014-Apr-16 12:00 150 10 gusting 22 12.0
2014-Apr-16 11:00 150 8 gusting 17 10.0
2014-Apr-16 10:00 150 8 gusting 16 10.0
2014-Apr-16 09:00 140 9 gusting 20 10.0
2014-Apr-16 08:00 140 9 gusting 20 11.0
2014-Apr-16 07:00 160 9 gusting 18 11.0
2014-Apr-16 06:00 160 10 gusting 18 12.0
2014-Apr-16 05:00 170 9 gusting 22 11.0
2014-Apr-16 04:00 170 9 gusting 17 10.0
2014-Apr-16 03:00 170 8 gusting 15 9.0